Solon, Iowa
Current Conditions -  °F | °C
As of 9:52 PM on Sunday 23 Nov 2014 (Local Time) from KCID Reporting Station
Haze Haze  
Wind Chill: 32°   Ceiling: 500
Heat Index: 41°   Visibility: 3mi
Dew Point: 41°   Wind: 18mph
Humidity: 100%   Direction: 320°NW
Pressure: 29.23"   Gusts: 26mph
Location:  41.81°N, 91.49°W
Report Text: KCID 240352Z 32016G23KT 3SM BR OVC005 05/05 A2923 RMK AO2 PK WND 31028/0315 RAE04 SLP901 P0000 T00500050
Loading
Personal Weather Stations






























Interactive Weather Map New forecast layout! Learn more

10-Day Weather Forecast

Advertisements
Track Severe Weather on mobile